Time;durP1;ratioP1;P1;durP2;ratioP2;P2;SDS_P1;SDS_P2;PMS_P1;PMS_P2;Temp;Humidity;BMP_temperature;BMP_pressure;BME280_temperature;BME280_humidity;BME280_pressure;Samples;Min_cycle;Max_cycle;Signal;HPM_P1;HPM_P2
2021/11/01 00:00:18;;;;;;;0.00;0.00;;;;;;;;;;4995588;28;20208;-57
2021/11/01 00:02:51;;;;;;;0.00;0.00;;;;;;;;;;4996085;28;20029;-57
2021/11/01 00:05:25;;;;;;;0.00;0.00;;;;;;;;;;4996521;28;20434;-58
2021/11/01 00:07:53;;;;;;;0.00;0.00;;;;;;;;;;4979891;28;20053;-57
2021/11/01 00:10:23;;;;;;;0.00;0.00;;;;;;;;;;4983623;28;20088;-57
2021/11/01 00:12:51;;;;;;;0.40;0.40;;;;;;;;;;4999429;28;20516;-58
2021/11/01 00:15:17;;;;;;;1.48;0.73;;;;;;;;;;4997504;28;20112;-56
2021/11/01 00:17:42;;;;;;;0.55;0.55;;;;;;;;;;4999701;28;20037;-58
2021/11/01 00:20:11;;;;;;;0.00;0.00;;;;;;;;;;4996925;28;20048;-58
2021/11/01 00:22:42;;;;;;;0.43;0.43;;;;;;;;;;4998497;28;20044;-57
2021/11/01 00:25:10;;;;;;;0.00;0.00;;;;;;;;;;4998831;28;20537;-58
2021/11/01 00:27:36;;;;;;;0.03;0.03;;;;;;;;;;4997984;28;20120;-57
2021/11/01 00:30:02;;;;;;;0.20;0.20;;;;;;;;;;4999762;28;20045;-57
2021/11/01 00:32:33;;;;;;;0.00;0.00;;;;;;;;;;4978187;28;20029;-57
2021/11/01 00:35:00;;;;;;;0.00;0.00;;;;;;;;;;4986031;28;20034;-59
2021/11/01 00:37:29;;;;;;;21.52;0.98;;;;;;;;;;4994817;28;20069;-56
2021/11/01 00:39:57;;;;;;;0.00;0.00;;;;;;;;;;4981382;28;20036;-58
2021/11/01 00:42:37;;;;;;;0.00;0.00;;;;;;;;;;4987239;28;20038;-57
2021/11/01 00:45:03;;;;;;;0.00;0.00;;;;;;;;;;4998358;28;20040;-56
2021/11/01 00:47:34;;;;;;;0.00;0.00;;;;;;;;;;4996121;28;20025;-57
2021/11/01 00:49:59;;;;;;;0.00;0.00;;;;;;;;;;4994629;28;20074;-57
2021/11/01 00:52:28;;;;;;;0.00;0.00;;;;;;;;;;4979228;28;20057;-57
2021/11/01 00:55:03;;;;;;;0.00;0.00;;;;;;;;;;4995999;28;20121;-57
2021/11/01 00:57:29;;;;;;;0.00;0.00;;;;;;;;;;4996876;28;20026;-57
2021/11/01 00:59:56;;;;;;;18.67;0.93;;;;;;;;;;4977698;28;20029;-59
2021/11/01 01:02:22;;;;;;;1.98;1.02;;;;;;;;;;4992151;28;20026;-58
2021/11/01 01:04:47;;;;;;;0.00;0.00;;;;;;;;;;4995465;28;20052;-57
2021/11/01 01:07:15;;;;;;;0.00;0.00;;;;;;;;;;4984513;28;20156;-57
2021/11/01 01:09:45;;;;;;;1.13;1.10;;;;;;;;;;4999359;28;20158;-57
2021/11/01 01:12:14;;;;;;;0.00;0.00;;;;;;;;;;4997001;28;20037;-58
2021/11/01 01:14:44;;;;;;;0.00;0.00;;;;;;;;;;4981121;28;20022;-58
2021/11/01 01:17:12;;;;;;;0.52;0.52;;;;;;;;;;4997184;28;20030;-58
2021/11/01 01:19:47;;;;;;;0.80;0.80;;;;;;;;;;4999283;28;22001;-56
2021/11/01 01:22:24;;;;;;;;;;;;;;;;;;4996774;28;20037;-55
2021/11/01 01:24:52;;;;;;;0.00;0.00;;;;;;;;;;4998450;28;21148;-56
2021/11/01 01:27:20;;;;;;;0.25;0.25;;;;;;;;;;4999333;28;20491;-57
2021/11/01 01:29:50;;;;;;;0.73;0.52;;;;;;;;;;4998243;28;20139;-58
2021/11/01 01:32:18;;;;;;;13.70;1.65;;;;;;;;;;5000564;28;20065;-57
2021/11/01 01:34:43;;;;;;;0.05;0.05;;;;;;;;;;4986105;28;20041;-57
2021/11/01 01:37:11;;;;;;;0.00;0.00;;;;;;;;;;4996780;28;20040;-57
2021/11/01 01:39:44;;;;;;;0.00;0.00;;;;;;;;;;4998831;28;20576;-56
2021/11/01 01:42:09;;;;;;;0.45;0.45;;;;;;;;;;4983344;28;20500;-56
2021/11/01 01:44:38;;;;;;;1.00;0.55;;;;;;;;;;4997899;28;20032;-54
2021/11/01 01:47:07;;;;;;;0.32;0.32;;;;;;;;;;4986041;28;20034;-56
2021/11/01 01:49:33;;;;;;;0.17;0.17;;;;;;;;;;4998864;28;20053;-56
2021/11/01 01:52:00;;;;;;;0.40;0.40;;;;;;;;;;4996404;28;20160;-57
2021/11/01 01:54:28;;;;;;;0.10;0.10;;;;;;;;;;4993418;28;20034;-58
2021/11/01 01:56:54;;;;;;;0.10;0.10;;;;;;;;;;4999453;28;20133;-57
2021/11/01 01:59:22;;;;;;;3.05;2.22;;;;;;;;;;4980215;28;20056;-58
2021/11/01 02:01:48;;;;;;;0.00;0.00;;;;;;;;;;4999060;28;20797;-58
2021/11/01 02:04:17;;;;;;;0.70;0.52;;;;;;;;;;4988732;28;20195;-54
2021/11/01 02:06:51;;;;;;;0.00;0.00;;;;;;;;;;4960629;28;1109066;-58
2021/11/01 02:13:05;;;;;;;0.00;0.00;;;;;;;;;;4999084;28;20181;-58
2021/11/01 02:15:34;;;;;;;0.17;0.17;;;;;;;;;;4978518;28;20033;-60
2021/11/01 02:18:04;;;;;;;0.00;0.00;;;;;;;;;;4978581;28;20052;-57
2021/11/01 02:20:37;;;;;;;0.68;0.68;;;;;;;;;;4996300;28;20030;-55
2021/11/01 02:23:03;;;;;;;0.00;0.00;;;;;;;;;;4995647;28;20037;-58
2021/11/01 02:25:49;;;;;;;0.47;0.45;;;;;;;;;;4981964;28;20166;-57
2021/11/01 02:28:18;;;;;;;0.00;0.00;;;;;;;;;;4996686;28;20168;-58
2021/11/01 02:30:46;;;;;;;15.75;0.75;;;;;;;;;;4996211;28;20025;-56
2021/11/01 02:33:15;;;;;;;0.00;0.00;;;;;;;;;;4983599;28;20128;-58
2021/11/01 02:35:45;;;;;;;0.80;0.65;;;;;;;;;;4998683;28;20034;-55
2021/11/01 02:38:15;;;;;;;0.00;0.00;;;;;;;;;;4997412;28;20073;-57
2021/11/01 02:40:44;;;;;;;1.10;0.20;;;;;;;;;;4998635;28;20046;-57
2021/11/01 02:43:10;;;;;;;0.88;0.85;;;;;;;;;;4995557;28;20157;-57
2021/11/01 02:45:38;;;;;;;0.00;0.00;;;;;;;;;;4996426;28;20044;-56
2021/11/01 02:48:07;;;;;;;0.20;0.20;;;;;;;;;;4987145;28;22168;-56
2021/11/01 02:50:33;;;;;;;0.00;0.00;;;;;;;;;;4963704;28;20167;-56
2021/11/01 02:52:58;;;;;;;0.00;0.00;;;;;;;;;;4979217;28;20045;-58
2021/11/01 02:55:24;;;;;;;0.00;0.00;;;;;;;;;;4979745;28;20041;-58
2021/11/01 02:57:49;;;;;;;0.00;0.00;;;;;;;;;;4995079;28;20151;-57
2021/11/01 03:00:18;;;;;;;0.00;0.00;;;;;;;;;;4997548;28;20021;-58
2021/11/01 03:02:48;;;;;;;0.38;0.38;;;;;;;;;;4998231;28;20037;-56
2021/11/01 03:05:17;;;;;;;0.00;0.00;;;;;;;;;;4996347;28;20109;-57
2021/11/01 03:07:46;;;;;;;0.00;0.00;;;;;;;;;;4996435;28;20124;-58
2021/11/01 03:10:14;;;;;;;0.52;0.52;;;;;;;;;;4964411;28;20138;-56
2021/11/01 03:12:41;;;;;;;0.20;0.20;;;;;;;;;;4998453;28;20820;-56
2021/11/01 03:15:16;;;;;;;0.00;0.00;;;;;;;;;;4997765;28;20045;-56
2021/11/01 03:17:46;;;;;;;0.00;0.00;;;;;;;;;;4997071;28;20037;-58
2021/11/01 03:20:15;;;;;;;0.00;0.00;;;;;;;;;;4984375;28;20069;-58
2021/11/01 03:22:47;;;;;;;0.00;0.00;;;;;;;;;;4997954;28;21729;-58
2021/11/01 03:25:21;;;;;;;0.00;0.00;;;;;;;;;;4996280;28;20049;-57
2021/11/01 03:27:53;;;;;;;0.00;0.00;;;;;;;;;;4995602;28;20048;-57
2021/11/01 03:30:25;;;;;;;0.00;0.00;;;;;;;;;;4981356;28;20038;-57
2021/11/01 03:32:56;;;;;;;0.00;0.00;;;;;;;;;;4975289;28;20033;-56
2021/11/01 03:35:25;;;;;;;0.00;0.00;;;;;;;;;;4993983;28;20129;-57
2021/11/01 03:37:53;;;;;;;0.00;0.00;;;;;;;;;;4996427;28;20026;-57
2021/11/01 03:40:22;;;;;;;0.00;0.00;;;;;;;;;;4994512;28;20038;-57
2021/11/01 03:42:54;;;;;;;0.00;0.00;;;;;;;;;;4996612;28;20041;-57
2021/11/01 03:45:23;;;;;;;0.65;0.60;;;;;;;;;;4994977;28;20101;-57
2021/11/01 03:47:49;;;;;;;3.13;1.10;;;;;;;;;;4995137;28;20041;-57
2021/11/01 03:50:30;;;;;;;0.30;0.30;;;;;;;;;;4995360;28;20026;-57
2021/11/01 03:52:58;;;;;;;0.00;0.00;;;;;;;;;;4982656;28;20038;-58
2021/11/01 03:55:29;;;;;;;0.00;0.00;;;;;;;;;;4995579;28;20056;-58
2021/11/01 03:58:00;;;;;;;0.00;0.00;;;;;;;;;;4996733;28;20037;-58
2021/11/01 04:00:29;;;;;;;0.00;0.00;;;;;;;;;;4996486;28;20709;-57
2021/11/01 04:02:58;;;;;;;0.00;0.00;;;;;;;;;;4994254;28;20058;-58
2021/11/01 04:05:23;;;;;;;0.00;0.00;;;;;;;;;;4976526;28;20029;-56
2021/11/01 04:07:49;;;;;;;0.08;0.08;;;;;;;;;;4997441;28;20166;-58
2021/11/01 04:10:17;;;;;;;0.00;0.00;;;;;;;;;;4997122;28;20033;-58
2021/11/01 04:12:45;;;;;;;2.13;1.30;;;;;;;;;;4995042;28;20112;-57
2021/11/01 04:15:14;;;;;;;0.00;0.00;;;;;;;;;;4996045;28;20147;-60
2021/11/01 04:18:03;;;;;;;0.00;0.00;;;;;;;;;;4977057;28;20034;-57
2021/11/01 04:23:08;;;;;;;0.43;0.43;;;;;;;;;;4977329;28;20866;-57
2021/11/01 04:25:36;;;;;;;0.00;0.00;;;;;;;;;;4978306;28;20041;-59
2021/11/01 04:28:06;;;;;;;0.22;0.22;;;;;;;;;;4983947;28;20140;-57
2021/11/01 04:30:47;;;;;;;0.00;0.00;;;;;;;;;;4994835;28;21082;-59
2021/11/01 04:33:20;;;;;;;0.00;0.00;;;;;;;;;;4994351;28;20029;-58
2021/11/01 04:35:50;;;;;;;0.00;0.00;;;;;;;;;;4997028;28;20064;-57
2021/11/01 04:53:57;;;;;;;0.00;0.00;;;;;;;;;;4979540;28;20461;-58
2021/11/01 04:56:25;;;;;;;0.00;0.00;;;;;;;;;;4993955;28;20076;-57
2021/11/01 04:58:53;;;;;;;0.20;0.20;;;;;;;;;;4980987;28;20061;-56
2021/11/01 05:01:29;;;;;;;1.10;1.05;;;;;;;;;;4994192;28;20053;-57
2021/11/01 05:04:01;;;;;;;0.00;0.00;;;;;;;;;;4986528;28;20075;-57
2021/11/01 05:06:30;;;;;;;0.70;0.65;;;;;;;;;;4979436;28;20038;-57
2021/11/01 05:09:05;;;;;;;0.00;0.00;;;;;;;;;;4968674;28;20116;-57
2021/11/01 05:11:40;;;;;;;0.00;0.00;;;;;;;;;;4950744;28;20037;-57
2021/11/01 05:14:14;;;;;;;0.15;0.15;;;;;;;;;;4983234;28;20508;-58
2021/11/01 05:19:25;;;;;;;0.00;0.00;;;;;;;;;;4985879;28;20045;-58
2021/11/01 05:24:42;;;;;;;0.00;0.00;;;;;;;;;;4982885;28;20053;-57
2021/11/01 05:29:54;;;;;;;0.25;0.25;;;;;;;;;;4968882;28;20092;-57
2021/11/01 05:32:25;;;;;;;0.10;0.10;;;;;;;;;;4982617;28;20034;-55
2021/11/01 05:34:53;;;;;;;0.00;0.00;;;;;;;;;;4965050;28;20588;-57
2021/11/01 05:37:21;;;;;;;0.00;0.00;;;;;;;;;;4963957;28;20026;-58
2021/11/01 05:39:49;;;;;;;0.28;0.28;;;;;;;;;;4983432;28;20118;-56
2021/11/01 05:42:17;;;;;;;0.00;0.00;;;;;;;;;;4964292;28;20088;-57
2021/11/01 05:44:45;;;;;;;0.00;0.00;;;;;;;;;;4984407;28;21979;-56
2021/11/01 05:47:13;;;;;;;0.00;0.00;;;;;;;;;;4965981;28;20030;-56
2021/11/01 05:49:39;;;;;;;0.05;0.05;;;;;;;;;;4983921;28;20185;-55
2021/11/01 05:52:08;;;;;;;0.00;0.00;;;;;;;;;;4967822;28;20030;-55
2021/11/01 05:54:33;;;;;;;0.00;0.00;;;;;;;;;;4990225;28;20184;-57
2021/11/01 06:15:02;;;;;;;0.00;0.00;;;;;;;;;;4997674;28;20087;-58
2021/11/01 06:17:32;;;;;;;0.17;0.17;;;;;;;;;;5000224;28;20029;-57
2021/11/01 06:20:00;;;;;;;0.00;0.00;;;;;;;;;;4997766;28;20071;-57
2021/11/01 06:22:28;;;;;;;0.43;0.22;;;;;;;;;;4997405;28;20038;-58
2021/11/01 06:25:09;;;;;;;0.00;0.00;;;;;;;;;;4984369;28;20048;-58
2021/11/01 06:27:35;;;;;;;0.45;0.45;;;;;;;;;;4998242;28;20038;-57
2021/11/01 06:32:40;;;;;;;0.00;0.00;;;;;;;;;;4985766;28;20489;-57
2021/11/01 06:51:59;;;;;;;0.10;0.10;;;;;;;;;;4999507;28;20033;-57
2021/11/01 06:54:51;;;;;;;0.00;0.00;;;;;;;;;;4999485;28;20531;-57
2021/11/01 06:57:23;;;;;;;0.00;0.00;;;;;;;;;;4985854;28;20056;-56
2021/11/01 08:43:28;;;;;;;0.10;0.10;;;;;;;;;;4983804;28;20037;-57
2021/11/01 09:20:38;;;;;;;0.00;0.00;;;;;;;;;;4974201;28;20660;-58
2021/11/01 09:28:29;;;;;;;0.10;0.10;;;;;;;;;;4981261;28;20034;-58
2021/11/01 09:42:00;;;;;;;0.00;0.00;;;;;;;;;;4961843;28;20588;-59
2021/11/01 09:44:30;;;;;;;0.00;0.00;;;;;;;;;;4979301;28;20054;-59
2021/11/01 09:47:02;;;;;;;0.10;0.10;;;;;;;;;;4976393;28;21132;-58
2021/11/01 09:49:28;;;;;;;0.00;0.00;;;;;;;;;;4960333;28;20176;-58
2021/11/01 09:51:55;;;;;;;0.10;0.10;;;;;;;;;;4977180;28;20042;-58
2021/11/01 09:54:26;;;;;;;0.13;0.13;;;;;;;;;;4978818;28;20133;-58
2021/11/01 09:57:10;;;;;;;0.10;0.10;;;;;;;;;;4978320;28;20058;-59
2021/11/01 09:59:42;;;;;;;0.73;0.73;;;;;;;;;;4974627;28;20508;-57
2021/11/01 10:02:25;;;;;;;0.03;0.03;;;;;;;;;;4963866;28;20138;-58
2021/11/01 10:04:58;;;;;;;0.30;0.30;;;;;;;;;;4977243;28;20030;-59
2021/11/01 10:07:26;;;;;;;0.30;0.25;;;;;;;;;;4979215;28;20791;-59
2021/11/01 10:09:53;;;;;;;0.00;0.00;;;;;;;;;;4992050;28;20046;-59
2021/11/01 10:12:26;;;;;;;14.63;1.90;;;;;;;;;;4990339;28;20045;-59
2021/11/01 10:14:53;;;;;;;0.00;0.00;;;;;;;;;;5001777;28;20045;-59
2021/11/01 10:17:36;;;;;;;0.00;0.00;;;;;;;;;;5001088;28;20030;-59
2021/11/01 10:20:17;;;;;;;1.90;0.65;;;;;;;;;;4975443;28;20609;-60
2021/11/01 10:22:45;;;;;;;0.00;0.00;;;;;;;;;;4999178;28;20041;-58
2021/11/01 10:25:15;;;;;;;0.52;0.43;;;;;;;;;;5001460;28;20029;-58
2021/11/01 10:27:46;;;;;;;0.17;0.17;;;;;;;;;;5000931;28;20524;-58
2021/11/01 10:30:14;;;;;;;0.08;0.08;;;;;;;;;;4988761;28;20057;-58
2021/11/01 10:32:45;;;;;;;2.28;0.88;;;;;;;;;;4985066;28;20144;-58
2021/11/01 10:35:18;;;;;;;0.22;0.15;;;;;;;;;;5001024;28;20041;-57
2021/11/01 10:38:04;;;;;;;0.35;0.35;;;;;;;;;;4983218;28;20087;-59
2021/11/01 10:40:32;;;;;;;0.65;0.65;;;;;;;;;;4981811;28;20387;-58
2021/11/01 10:43:16;;;;;;;0.00;0.00;;;;;;;;;;4999844;28;20036;-58
2021/11/01 11:11:43;;;;;;;0.28;0.10;;;;;;;;;;4980906;28;20535;-59
2021/11/01 11:30:08;;;;;;;0.28;0.28;;;;;;;;;;4964817;28;20042;-58
2021/11/01 11:48:47;;;;;;;0.00;0.00;;;;;;;;;;4960073;28;20093;-64
2021/11/01 11:51:13;;;;;;;0.63;0.22;;;;;;;;;;4958169;28;20029;-59
2021/11/01 11:54:02;;;;;;;0.20;0.20;;;;;;;;;;4963297;28;20085;-58
2021/11/01 11:56:33;;;;;;;0.00;0.00;;;;;;;;;;4974424;28;20033;-61
2021/11/01 11:59:01;;;;;;;0.30;0.30;;;;;;;;;;4977761;28;21173;-64
2021/11/01 12:01:40;;;;;;;0.10;0.10;;;;;;;;;;4977744;28;21862;-58
2021/11/01 12:04:33;;;;;;;0.10;0.10;;;;;;;;;;4975475;28;20037;-59
2021/11/01 12:07:01;;;;;;;0.13;0.10;;;;;;;;;;4976273;28;20041;-59
2021/11/01 12:09:41;;;;;;;0.25;0.25;;;;;;;;;;4995976;28;20132;-59
2021/11/01 12:12:49;;;;;;;0.00;0.00;;;;;;;;;;4998506;28;20037;-58
2021/11/01 12:18:02;;;;;;;0.00;0.00;;;;;;;;;;4998337;28;20041;-60
2021/11/01 12:20:31;;;;;;;0.05;0.05;;;;;;;;;;4996864;28;20029;-60
2021/11/01 12:23:04;;;;;;;0.00;0.00;;;;;;;;;;4993737;28;20034;-60
2021/11/01 12:25:37;;;;;;;0.38;0.13;;;;;;;;;;4996883;28;20160;-59
2021/11/01 12:28:09;;;;;;;2.47;0.80;;;;;;;;;;4968751;28;20065;-60
2021/11/01 12:30:42;;;;;;;0.00;0.00;;;;;;;;;;4978291;28;20872;-62
2021/11/01 12:33:11;;;;;;;0.00;0.00;;;;;;;;;;4984696;28;20029;-60
2021/11/01 12:35:46;;;;;;;0.65;0.60;;;;;;;;;;4993377;28;20615;-60
2021/11/01 12:38:17;;;;;;;0.10;0.10;;;;;;;;;;4964246;28;20048;-59
2021/11/01 12:40:51;;;;;;;0.00;0.00;;;;;;;;;;4977049;28;20072;-60
2021/11/01 12:46:28;;;;;;;0.00;0.00;;;;;;;;;;4993868;28;20121;-60
2021/11/01 12:59:30;;;;;;;0.00;0.00;;;;;;;;;;4993789;28;20033;-59
2021/11/01 13:01:56;;;;;;;0.00;0.00;;;;;;;;;;5000427;28;20109;-59
2021/11/01 13:04:39;;;;;;;0.03;0.03;;;;;;;;;;4981305;28;20033;-59
2021/11/01 13:07:18;;;;;;;0.55;0.40;;;;;;;;;;4982270;28;20051;-60
2021/11/01 13:09:47;;;;;;;0.32;0.30;;;;;;;;;;4965421;28;20417;-59
2021/11/01 13:12:29;;;;;;;1.45;0.55;;;;;;;;;;4963394;28;20033;-59
2021/11/01 13:18:07;;;;;;;0.00;0.00;;;;;;;;;;4965353;28;20109;-61
2021/11/01 13:20:37;;;;;;;0.00;0.00;;;;;;;;;;4979038;28;20033;-58
2021/11/01 13:23:02;;;;;;;0.00;0.00;;;;;;;;;;4982981;28;20026;-59
2021/11/01 13:36:50;;;;;;;0.00;0.00;;;;;;;;;;4959971;28;20209;-58
2021/11/01 13:39:28;;;;;;;0.00;0.00;;;;;;;;;;4959786;28;20038;-59
2021/11/01 13:41:54;;;;;;;0.00;0.00;;;;;;;;;;4956584;28;20046;-59
2021/11/01 13:44:24;;;;;;;0.00;0.00;;;;;;;;;;4960050;28;20033;-59
2021/11/01 13:46:51;;;;;;;0.10;0.10;;;;;;;;;;4979431;28;20037;-58
2021/11/01 13:49:18;;;;;;;0.63;0.45;;;;;;;;;;4976418;28;20496;-59
2021/11/01 13:51:48;;;;;;;0.20;0.20;;;;;;;;;;4980602;28;20034;-58
2021/11/01 13:54:27;;;;;;;0.00;0.00;;;;;;;;;;4956381;28;20355;-60
2021/11/01 13:57:00;;;;;;;0.00;0.00;;;;;;;;;;4982198;28;20600;-59
2021/11/01 14:32:33;;;;;;;0.00;0.00;;;;;;;;;;4999548;28;20034;-60
2021/11/01 14:35:23;;;;;;;0.00;0.00;;;;;;;;;;4996487;28;20103;-61
2021/11/01 15:16:15;;;;;;;0.00;0.00;;;;;;;;;;4944264;28;20750;-60
2021/11/01 15:24:22;;;;;;;0.00;0.00;;;;;;;;;;4973020;28;20643;-60
2021/11/01 16:18:12;;;;;;;0.00;0.00;;;;;;;;;;4980632;28;20425;-59
2021/11/01 16:20:38;;;;;;;0.00;0.00;;;;;;;;;;4976048;28;20081;-59
2021/11/01 16:25:37;;;;;;;2.17;0.93;;;;;;;;;;4977429;28;20067;-59
2021/11/01 16:28:03;;;;;;;0.00;0.00;;;;;;;;;;4977545;28;20049;-59
2021/11/01 16:30:31;;;;;;;0.00;0.00;;;;;;;;;;4976613;28;20497;-59
2021/11/01 16:33:04;;;;;;;0.40;0.40;;;;;;;;;;4976384;28;20034;-59
2021/11/01 16:35:38;;;;;;;0.32;0.32;;;;;;;;;;4978348;28;20042;-61
2021/11/01 16:38:10;;;;;;;0.00;0.00;;;;;;;;;;4976890;28;20044;-60
2021/11/01 16:40:39;;;;;;;0.00;0.00;;;;;;;;;;4977873;28;20034;-59
2021/11/01 16:43:13;;;;;;;0.00;0.00;;;;;;;;;;4977311;28;20040;-59
2021/11/01 16:45:41;;;;;;;0.00;0.00;;;;;;;;;;4976413;28;20029;-59
2021/11/01 16:48:12;;;;;;;0.10;0.10;;;;;;;;;;4978766;28;20085;-60
2021/11/01 16:50:42;;;;;;;0.00;0.00;;;;;;;;;;4978648;28;20118;-61
2021/11/01 16:53:11;;;;;;;0.00;0.00;;;;;;;;;;4978225;28;20109;-59
2021/11/01 16:55:40;;;;;;;0.00;0.00;;;;;;;;;;4977538;28;20133;-59
2021/11/01 16:58:21;;;;;;;0.00;0.00;;;;;;;;;;4980351;28;20042;-60
2021/11/01 17:01:01;;;;;;;0.10;0.10;;;;;;;;;;4978357;28;20474;-59
2021/11/01 17:03:51;;;;;;;0.10;0.10;;;;;;;;;;4978379;28;20049;-59
2021/11/01 17:22:47;;;;;;;0.13;0.13;;;;;;;;;;4958653;28;20034;-59
2021/11/01 17:25:45;;;;;;;0.00;0.00;;;;;;;;;;4973584;28;20040;-59
2021/11/01 17:36:14;;;;;;;0.08;0.08;;;;;;;;;;4975944;28;20119;-60
2021/11/01 18:39:38;;;;;;;0.47;0.40;;;;;;;;;;4996198;28;20038;-60
2021/11/01 18:42:42;;;;;;;0.00;0.00;;;;;;;;;;4998375;28;20048;-59
2021/11/01 18:53:16;;;;;;;0.00;0.00;;;;;;;;;;4996623;28;20037;-60
2021/11/01 18:55:49;;;;;;;0.10;0.10;;;;;;;;;;4994017;28;20124;-60
2021/11/01 18:58:20;;;;;;;0.00;0.00;;;;;;;;;;4994546;28;20029;-60
2021/11/01 19:00:45;;;;;;;0.00;0.00;;;;;;;;;;4996584;28;20029;-60
2021/11/01 19:03:15;;;;;;;0.00;0.00;;;;;;;;;;4979705;28;20118;-59
2021/11/01 19:05:47;;;;;;;0.00;0.00;;;;;;;;;;4996206;28;20029;-60
2021/11/01 19:08:21;;;;;;;0.40;0.40;;;;;;;;;;4996833;28;20466;-61
2021/11/01 19:17:35;;;;;;;0.03;0.03;;;;;;;;;;4939816;28;20039;-58
2021/11/01 20:04:06;;;;;;;0.00;0.00;;;;;;;;;;4996032;28;20482;-60
2021/11/01 21:26:43;;;;;;;0.00;0.00;;;;;;;;;;4979266;28;20037;-59
2021/11/01 21:29:09;;;;;;;0.00;0.00;;;;;;;;;;4968643;28;20033;-61
2021/11/01 21:31:35;;;;;;;0.70;0.70;;;;;;;;;;4948532;28;20046;-61
2021/11/01 21:34:06;;;;;;;0.00;0.00;;;;;;;;;;4980005;28;20055;-60
2021/11/01 21:36:32;;;;;;;0.00;0.00;;;;;;;;;;4977169;28;20030;-61
2021/11/01 21:39:00;;;;;;;0.00;0.00;;;;;;;;;;4979365;28;20026;-59
2021/11/01 21:41:30;;;;;;;0.00;0.00;;;;;;;;;;4979637;28;20144;-61
2021/11/01 21:43:56;;;;;;;0.43;0.43;;;;;;;;;;4960624;28;20050;-59
2021/11/01 21:46:24;;;;;;;0.00;0.00;;;;;;;;;;4976045;28;20046;-60
2021/11/01 21:48:53;;;;;;;0.00;0.00;;;;;;;;;;4963353;28;20034;-59
2021/11/01 21:51:19;;;;;;;0.00;0.00;;;;;;;;;;4964339;28;20088;-59
2021/11/01 21:53:58;;;;;;;0.00;0.00;;;;;;;;;;4963450;28;20046;-60
2021/11/01 21:56:31;;;;;;;0.52;0.52;;;;;;;;;;4977251;28;20153;-59
2021/11/01 22:21:18;;;;;;;0.00;0.00;;;;;;;;;;4998291;28;20061;-60
2021/11/01 22:23:59;;;;;;;0.00;0.00;;;;;;;;;;4989297;28;21990;-60
2021/11/01 22:43:01;;;;;;;0.30;0.30;;;;;;;;;;4940414;28;22351;-61
2021/11/01 22:56:13;;;;;;;0.00;0.00;;;;;;;;;;4997690;28;20717;-60
2021/11/01 22:58:45;;;;;;;0.00;0.00;;;;;;;;;;4999213;28;20033;-60
2021/11/01 23:01:18;;;;;;;0.00;0.00;;;;;;;;;;4999482;28;20050;-60
2021/11/01 23:33:48;;;;;;;0.00;0.00;;;;;;;;;;4997232;28;20092;-59
2021/11/01 23:36:13;;;;;;;0.00;0.00;;;;;;;;;;4998273;28;20041;-60
2021/11/01 23:38:44;;;;;;;0.00;0.00;;;;;;;;;;4997672;28;20041;-61
2021/11/01 23:41:09;;;;;;;0.08;0.08;;;;;;;;;;4996894;28;20025;-60
2021/11/01 23:43:37;;;;;;;0.00;0.00;;;;;;;;;;4995522;28;20044;-60
2021/11/01 23:46:05;;;;;;;0.00;0.00;;;;;;;;;;4979162;28;22080;-59
2021/11/01 23:48:31;;;;;;;0.00;0.00;;;;;;;;;;4994381;28;20042;-61
2021/11/01 23:50:57;;;;;;;0.00;0.00;;;;;;;;;;4980838;28;20060;-61
2021/11/01 23:56:09;;;;;;;0.00;0.00;;;;;;;;;;4982623;28;20042;-60
2021/11/01 23:58:35;;;;;;;0.00;0.00;;;;;;;;;;4985390;28;20021;-60
